Vets Row, Illinois
Current Conditions -  °F | °C
As of 10:50 AM on Saturday 22 Nov 2014 (Local Time) from KC75 Reporting Station
Overcast Overcast  
Wind Chill: 43°   Ceiling: 2100
Heat Index: 47°   Visibility: 10mi
Dew Point: 40°   Wind: 8mph
Humidity: 75%   Direction: 210°SSW
Pressure: 29.97"   Gusts: 17mph
Location:  40.915°N, 89.5303°W
Report Text: KC75 221650Z AUTO 21007G15KT 10SM OVC021 09/04 A2997 RMK AO2 T00850043
Loading
Personal Weather Stations






























Interactive Weather Map New forecast layout! Learn more

10-Day Weather Forecast

Advertisements
Track Severe Weather on mobile